sensor_id;sensor_type;location;lat;lon;timestamp;temperature;humidity
47114;DHT22;32867;51.556;6.832;2023-03-20T00:00:24;10.90;99.90
47114;DHT22;32867;51.556;6.832;2023-03-20T00:05:25;10.80;99.90
47114;DHT22;32867;51.556;6.832;2023-03-20T00:10:43;10.90;99.90
47114;DHT22;32867;51.556;6.832;2023-03-20T00:15:44;11.00;99.90
47114;DHT22;32867;51.556;6.832;2023-03-20T00:20:46;10.90;99.90
47114;DHT22;32867;51.556;6.832;2023-03-20T00:25:47;10.70;99.90
47114;DHT22;32867;51.556;6.832;2023-03-20T00:30:47;10.70;99.90
47114;DHT22;32867;51.556;6.832;2023-03-20T00:35:48;10.60;99.90
47114;DHT22;32867;51.556;6.832;2023-03-20T00:40:48;10.60;99.90
47114;DHT22;32867;51.556;6.832;2023-03-20T00:45:49;10.60;99.90
47114;DHT22;32867;51.556;6.832;2023-03-20T00:50:50;10.60;99.90
47114;DHT22;32867;51.556;6.832;2023-03-20T00:55:51;10.50;99.90
47114;DHT22;32867;51.556;6.832;2023-03-20T01:00:51;10.40;99.90
47114;DHT22;32867;51.556;6.832;2023-03-20T01:05:52;10.30;99.90
47114;DHT22;32867;51.556;6.832;2023-03-20T01:10:55;10.20;99.90
47114;DHT22;32867;51.556;6.832;2023-03-20T01:15:57;10.20;99.90
47114;DHT22;32867;51.556;6.832;2023-03-20T01:20:58;10.30;99.90
47114;DHT22;32867;51.556;6.832;2023-03-20T01:25:59;10.20;99.90
47114;DHT22;32867;51.556;6.832;2023-03-20T01:31:00;10.30;99.90
47114;DHT22;32867;51.556;6.832;2023-03-20T01:36:01;10.30;99.90
47114;DHT22;32867;51.556;6.832;2023-03-20T01:41:05;10.30;99.90
47114;DHT22;32867;51.556;6.832;2023-03-20T01:51:12;10.40;99.90
47114;DHT22;32867;51.556;6.832;2023-03-20T01:56:14;10.40;99.90
47114;DHT22;32867;51.556;6.832;2023-03-20T02:01:20;10.50;99.90
47114;DHT22;32867;51.556;6.832;2023-03-20T02:06:24;10.60;99.90
47114;DHT22;32867;51.556;6.832;2023-03-20T02:11:49;10.60;99.90
47114;DHT22;32867;51.556;6.832;2023-03-20T02:16:53;10.40;99.90
47114;DHT22;32867;51.556;6.832;2023-03-20T02:44:13;10.40;99.90
47114;DHT22;32867;51.556;6.832;2023-03-20T02:54:56;10.30;99.90
47114;DHT22;32867;51.556;6.832;2023-03-20T03:00:23;10.30;99.90
47114;DHT22;32867;51.556;6.832;2023-03-20T03:05:41;10.40;99.90
47114;DHT22;32867;51.556;6.832;2023-03-20T03:10:44;10.40;99.90
47114;DHT22;32867;51.556;6.832;2023-03-20T03:15:49;10.50;99.90
47114;DHT22;32867;51.556;6.832;2023-03-20T03:20:54;10.60;99.90
47114;DHT22;32867;51.556;6.832;2023-03-20T03:25:58;10.60;99.90
47114;DHT22;32867;51.556;6.832;2023-03-20T03:31:01;10.60;99.90
47114;DHT22;32867;51.556;6.832;2023-03-20T03:41:33;10.50;99.90
47114;DHT22;32867;51.556;6.832;2023-03-20T03:46:45;10.40;99.90
47114;DHT22;32867;51.556;6.832;2023-03-20T03:51:49;10.20;99.90
47114;DHT22;32867;51.556;6.832;2023-03-20T03:56:51;10.10;99.90
47114;DHT22;32867;51.556;6.832;2023-03-20T04:01:55;10.00;99.90
47114;DHT22;32867;51.556;6.832;2023-03-20T04:06:56;10.10;99.90
47114;DHT22;32867;51.556;6.832;2023-03-20T04:11:57;9.90;99.90
47114;DHT22;32867;51.556;6.832;2023-03-20T04:16:57;9.90;99.90
47114;DHT22;32867;51.556;6.832;2023-03-20T04:21:58;9.90;99.90
47114;DHT22;32867;51.556;6.832;2023-03-20T04:27:00;9.90;99.90
47114;DHT22;32867;51.556;6.832;2023-03-20T04:32:01;10.00;99.90
47114;DHT22;32867;51.556;6.832;2023-03-20T04:37:20;9.80;99.90
47114;DHT22;32867;51.556;6.832;2023-03-20T04:42:33;9.80;99.90
47114;DHT22;32867;51.556;6.832;2023-03-20T04:47:37;9.90;99.90
47114;DHT22;32867;51.556;6.832;2023-03-20T04:52:38;9.80;99.90
47114;DHT22;32867;51.556;6.832;2023-03-20T04:57:40;9.70;99.90
47114;DHT22;32867;51.556;6.832;2023-03-20T05:02:44;9.70;99.90
47114;DHT22;32867;51.556;6.832;2023-03-20T05:07:45;9.60;99.90
47114;DHT22;32867;51.556;6.832;2023-03-20T05:12:52;9.50;99.90
47114;DHT22;32867;51.556;6.832;2023-03-20T05:18:01;9.50;99.90
47114;DHT22;32867;51.556;6.832;2023-03-20T05:23:16;9.40;99.90
47114;DHT22;32867;51.556;6.832;2023-03-20T05:28:23;9.50;99.90
47114;DHT22;32867;51.556;6.832;2023-03-20T05:33:44;9.50;99.90
47114;DHT22;32867;51.556;6.832;2023-03-20T05:39:05;9.30;99.90
47114;DHT22;32867;51.556;6.832;2023-03-20T05:44:24;9.30;99.90
47114;DHT22;32867;51.556;6.832;2023-03-20T05:49:44;9.30;99.90
47114;DHT22;32867;51.556;6.832;2023-03-20T05:54:56;9.40;99.90
47114;DHT22;32867;51.556;6.832;2023-03-20T06:00:08;9.30;99.90
47114;DHT22;32867;51.556;6.832;2023-03-20T06:05:18;9.30;99.90
47114;DHT22;32867;51.556;6.832;2023-03-20T06:10:24;9.10;99.90
47114;DHT22;32867;51.556;6.832;2023-03-20T06:15:27;9.30;99.90
47114;DHT22;32867;51.556;6.832;2023-03-20T06:20:35;9.30;99.90
47114;DHT22;32867;51.556;6.832;2023-03-20T06:25:38;9.50;99.90
47114;DHT22;32867;51.556;6.832;2023-03-20T06:30:40;9.50;99.90
47114;DHT22;32867;51.556;6.832;2023-03-20T06:35:47;9.50;99.90
47114;DHT22;32867;51.556;6.832;2023-03-20T06:40:48;9.50;99.90
47114;DHT22;32867;51.556;6.832;2023-03-20T06:45:51;9.60;99.90
47114;DHT22;32867;51.556;6.832;2023-03-20T06:50:55;9.70;99.90
47114;DHT22;32867;51.556;6.832;2023-03-20T06:56:01;9.60;99.90
47114;DHT22;32867;51.556;6.832;2023-03-20T07:01:08;9.40;99.90
47114;DHT22;32867;51.556;6.832;2023-03-20T07:06:10;9.30;99.90
47114;DHT22;32867;51.556;6.832;2023-03-20T07:11:12;9.30;99.90
47114;DHT22;32867;51.556;6.832;2023-03-20T07:16:15;9.10;99.90
47114;DHT22;32867;51.556;6.832;2023-03-20T07:21:18;9.30;99.90
47114;DHT22;32867;51.556;6.832;2023-03-20T07:26:20;9.30;99.90
47114;DHT22;32867;51.556;6.832;2023-03-20T07:31:24;9.30;99.90
47114;DHT22;32867;51.556;6.832;2023-03-20T07:36:40;9.30;99.90
47114;DHT22;32867;51.556;6.832;2023-03-20T07:41:46;9.40;99.90
47114;DHT22;32867;51.556;6.832;2023-03-20T07:46:57;9.60;99.90
47114;DHT22;32867;51.556;6.832;2023-03-20T07:51:58;9.60;99.90
47114;DHT22;32867;51.556;6.832;2023-03-20T07:56:58;9.90;99.90
47114;DHT22;32867;51.556;6.832;2023-03-20T08:01:59;10.00;99.90
47114;DHT22;32867;51.556;6.832;2023-03-20T08:07:00;10.00;99.90
47114;DHT22;32867;51.556;6.832;2023-03-20T08:12:00;10.10;99.90
47114;DHT22;32867;51.556;6.832;2023-03-20T08:17:01;10.10;99.90
47114;DHT22;32867;51.556;6.832;2023-03-20T08:22:02;10.20;99.90
47114;DHT22;32867;51.556;6.832;2023-03-20T08:27:03;10.10;99.90
47114;DHT22;32867;51.556;6.832;2023-03-20T08:32:03;10.10;99.90
47114;DHT22;32867;51.556;6.832;2023-03-20T08:37:04;10.10;99.90
47114;DHT22;32867;51.556;6.832;2023-03-20T08:42:07;10.20;99.90
47114;DHT22;32867;51.556;6.832;2023-03-20T08:47:07;10.10;99.90
47114;DHT22;32867;51.556;6.832;2023-03-20T08:52:10;10.10;99.90
47114;DHT22;32867;51.556;6.832;2023-03-20T08:57:11;10.20;99.90
47114;DHT22;32867;51.556;6.832;2023-03-20T09:02:12;10.10;99.90
47114;DHT22;32867;51.556;6.832;2023-03-20T09:07:12;10.10;99.90
47114;DHT22;32867;51.556;6.832;2023-03-20T09:12:14;10.20;99.90
47114;DHT22;32867;51.556;6.832;2023-03-20T09:17:15;10.20;99.90
47114;DHT22;32867;51.556;6.832;2023-03-20T09:22:16;10.30;99.90
47114;DHT22;32867;51.556;6.832;2023-03-20T09:27:19;10.20;99.30
47114;DHT22;32867;51.556;6.832;2023-03-20T09:32:21;10.20;98.60
47114;DHT22;32867;51.556;6.832;2023-03-20T09:37:21;9.90;98.20
47114;DHT22;32867;51.556;6.832;2023-03-20T09:43:05;10.00;98.30
47114;DHT22;32867;51.556;6.832;2023-03-20T09:53:26;10.10;97.70
47114;DHT22;32867;51.556;6.832;2023-03-20T09:58:34;10.00;98.00
47114;DHT22;32867;51.556;6.832;2023-03-20T10:08:42;10.20;97.70
47114;DHT22;32867;51.556;6.832;2023-03-20T10:19:11;10.40;96.80
47114;DHT22;32867;51.556;6.832;2023-03-20T10:30:18;10.30;96.20
47114;DHT22;32867;51.556;6.832;2023-03-20T10:40:30;10.70;95.40
47114;DHT22;32867;51.556;6.832;2023-03-20T10:45:44;10.60;95.10
47114;DHT22;32867;51.556;6.832;2023-03-20T10:50:57;10.50;95.10
47114;DHT22;32867;51.556;6.832;2023-03-20T10:56:04;10.80;95.00
47114;DHT22;32867;51.556;6.832;2023-03-20T11:01:06;10.90;94.40
47114;DHT22;32867;51.556;6.832;2023-03-20T11:06:24;11.00;94.50
47114;DHT22;32867;51.556;6.832;2023-03-20T11:11:29;11.00;95.00
47114;DHT22;32867;51.556;6.832;2023-03-20T11:16:34;11.30;94.20
47114;DHT22;32867;51.556;6.832;2023-03-20T11:21:45;11.10;95.00
47114;DHT22;32867;51.556;6.832;2023-03-20T11:26:46;10.90;95.60
47114;DHT22;32867;51.556;6.832;2023-03-20T11:31:47;10.80;94.60
47114;DHT22;32867;51.556;6.832;2023-03-20T11:36:56;10.80;94.60
47114;DHT22;32867;51.556;6.832;2023-03-20T11:41:59;10.60;94.90
47114;DHT22;32867;51.556;6.832;2023-03-20T11:52:12;10.50;94.70
47114;DHT22;32867;51.556;6.832;2023-03-20T12:02:35;10.40;95.50
47114;DHT22;32867;51.556;6.832;2023-03-20T12:07:38;10.30;96.70
47114;DHT22;32867;51.556;6.832;2023-03-20T12:12:49;10.40;97.50
47114;DHT22;32867;51.556;6.832;2023-03-20T12:28:51;10.70;98.60
47114;DHT22;32867;51.556;6.832;2023-03-20T12:34:12;10.60;99.00
47114;DHT22;32867;51.556;6.832;2023-03-20T12:39:21;10.50;99.90
47114;DHT22;32867;51.556;6.832;2023-03-20T13:01:05;10.30;99.90
47114;DHT22;32867;51.556;6.832;2023-03-20T13:06:19;10.50;99.90
47114;DHT22;32867;51.556;6.832;2023-03-20T13:16:53;10.70;99.90
47114;DHT22;32867;51.556;6.832;2023-03-20T13:22:14;10.70;99.90
47114;DHT22;32867;51.556;6.832;2023-03-20T13:27:25;10.70;99.90
47114;DHT22;32867;51.556;6.832;2023-03-20T13:38:06;10.40;99.90
47114;DHT22;32867;51.556;6.832;2023-03-20T13:43:35;10.20;99.90
47114;DHT22;32867;51.556;6.832;2023-03-20T13:48:38;10.50;99.90
47114;DHT22;32867;51.556;6.832;2023-03-20T14:04:26;10.80;99.90
47114;DHT22;32867;51.556;6.832;2023-03-20T14:09:35;10.90;99.90
47114;DHT22;32867;51.556;6.832;2023-03-20T14:14:48;10.90;99.90
47114;DHT22;32867;51.556;6.832;2023-03-20T14:19:50;10.90;99.90
47114;DHT22;32867;51.556;6.832;2023-03-20T14:24:58;10.80;99.90
47114;DHT22;32867;51.556;6.832;2023-03-20T14:35:42;11.10;99.90
47114;DHT22;32867;51.556;6.832;2023-03-20T14:41:00;10.90;99.90
47114;DHT22;32867;51.556;6.832;2023-03-20T14:51:44;11.00;99.90
47114;DHT22;32867;51.556;6.832;2023-03-20T14:56:47;11.10;99.90
47114;DHT22;32867;51.556;6.832;2023-03-20T15:01:59;10.90;99.90
47114;DHT22;32867;51.556;6.832;2023-03-20T15:07:04;10.80;99.90
47114;DHT22;32867;51.556;6.832;2023-03-20T15:12:13;10.80;99.90
47114;DHT22;32867;51.556;6.832;2023-03-20T15:17:35;10.80;99.90
47114;DHT22;32867;51.556;6.832;2023-03-20T15:22:49;10.60;99.90
47114;DHT22;32867;51.556;6.832;2023-03-20T15:27:51;10.50;99.90
47114;DHT22;32867;51.556;6.832;2023-03-20T15:32:53;10.30;99.90
47114;DHT22;32867;51.556;6.832;2023-03-20T15:37:56;10.30;99.90
47114;DHT22;32867;51.556;6.832;2023-03-20T15:43:06;10.30;99.90
47114;DHT22;32867;51.556;6.832;2023-03-20T15:48:14;10.40;99.90
47114;DHT22;32867;51.556;6.832;2023-03-20T15:53:29;10.40;99.90
47114;DHT22;32867;51.556;6.832;2023-03-20T15:58:30;10.50;99.90
47114;DHT22;32867;51.556;6.832;2023-03-20T16:03:34;10.60;99.90
47114;DHT22;32867;51.556;6.832;2023-03-20T16:08:37;10.50;99.90
47114;DHT22;32867;51.556;6.832;2023-03-20T16:13:43;10.60;99.90
47114;DHT22;32867;51.556;6.832;2023-03-20T16:18:46;10.40;99.90
47114;DHT22;32867;51.556;6.832;2023-03-20T16:23:51;10.50;99.90
47114;DHT22;32867;51.556;6.832;2023-03-20T16:28:58;10.40;99.90
47114;DHT22;32867;51.556;6.832;2023-03-20T16:34:00;10.40;99.90
47114;DHT22;32867;51.556;6.832;2023-03-20T16:39:09;10.40;99.90
47114;DHT22;32867;51.556;6.832;2023-03-20T16:44:20;10.30;99.90
47114;DHT22;32867;51.556;6.832;2023-03-20T16:54:34;10.10;99.90
47114;DHT22;32867;51.556;6.832;2023-03-20T16:59:38;10.00;99.90
47114;DHT22;32867;51.556;6.832;2023-03-20T17:04:39;10.00;99.90
47114;DHT22;32867;51.556;6.832;2023-03-20T17:10:08;10.20;99.90
47114;DHT22;32867;51.556;6.832;2023-03-20T17:15:16;10.30;99.90
47114;DHT22;32867;51.556;6.832;2023-03-20T17:20:20;10.40;99.90
47114;DHT22;32867;51.556;6.832;2023-03-20T17:25:21;10.20;99.90
47114;DHT22;32867;51.556;6.832;2023-03-20T17:30:23;10.30;99.90
47114;DHT22;32867;51.556;6.832;2023-03-20T17:35:27;10.40;99.90
47114;DHT22;32867;51.556;6.832;2023-03-20T17:40:29;10.30;99.90
47114;DHT22;32867;51.556;6.832;2023-03-20T17:45:29;10.20;99.90
47114;DHT22;32867;51.556;6.832;2023-03-20T17:50:30;10.30;99.90
47114;DHT22;32867;51.556;6.832;2023-03-20T17:55:31;10.40;99.90
47114;DHT22;32867;51.556;6.832;2023-03-20T18:00:31;10.40;99.90
47114;DHT22;32867;51.556;6.832;2023-03-20T18:05:32;10.30;99.90
47114;DHT22;32867;51.556;6.832;2023-03-20T18:10:34;10.30;99.90
47114;DHT22;32867;51.556;6.832;2023-03-20T18:15:36;10.40;99.90
47114;DHT22;32867;51.556;6.832;2023-03-20T18:20:40;10.50;99.90
47114;DHT22;32867;51.556;6.832;2023-03-20T18:25:41;10.50;99.90
47114;DHT22;32867;51.556;6.832;2023-03-20T18:30:42;10.70;99.90
47114;DHT22;32867;51.556;6.832;2023-03-20T18:35:42;10.60;99.90
47114;DHT22;32867;51.556;6.832;2023-03-20T18:40:43;10.60;99.90
47114;DHT22;32867;51.556;6.832;2023-03-20T18:45:46;10.60;99.90
47114;DHT22;32867;51.556;6.832;2023-03-20T18:50:47;10.50;99.90
47114;DHT22;32867;51.556;6.832;2023-03-20T18:55:50;10.40;99.90
47114;DHT22;32867;51.556;6.832;2023-03-20T19:00:51;10.50;99.90
47114;DHT22;32867;51.556;6.832;2023-03-20T19:05:55;10.50;99.90
47114;DHT22;32867;51.556;6.832;2023-03-20T19:10:56;10.50;99.90
47114;DHT22;32867;51.556;6.832;2023-03-20T19:15:57;10.50;99.90
47114;DHT22;32867;51.556;6.832;2023-03-20T19:20:58;10.50;99.90
47114;DHT22;32867;51.556;6.832;2023-03-20T19:25:58;10.70;99.90
47114;DHT22;32867;51.556;6.832;2023-03-20T19:30:59;10.80;99.90
47114;DHT22;32867;51.556;6.832;2023-03-20T19:36:01;10.80;99.90
47114;DHT22;32867;51.556;6.832;2023-03-20T19:41:01;10.70;99.90
47114;DHT22;32867;51.556;6.832;2023-03-20T19:46:03;10.80;99.90
47114;DHT22;32867;51.556;6.832;2023-03-20T19:51:04;10.70;99.90
47114;DHT22;32867;51.556;6.832;2023-03-20T19:56:05;10.70;99.90
47114;DHT22;32867;51.556;6.832;2023-03-20T20:01:07;10.80;99.90
47114;DHT22;32867;51.556;6.832;2023-03-20T20:06:11;10.90;99.90
47114;DHT22;32867;51.556;6.832;2023-03-20T20:11:11;10.90;99.90
47114;DHT22;32867;51.556;6.832;2023-03-20T20:16:13;10.90;99.90
47114;DHT22;32867;51.556;6.832;2023-03-20T20:21:14;10.90;99.90
47114;DHT22;32867;51.556;6.832;2023-03-20T20:26:15;11.00;99.90
47114;DHT22;32867;51.556;6.832;2023-03-20T20:31:16;10.70;99.90
47114;DHT22;32867;51.556;6.832;2023-03-20T20:36:17;10.90;99.90
47114;DHT22;32867;51.556;6.832;2023-03-20T20:41:18;10.80;99.90
47114;DHT22;32867;51.556;6.832;2023-03-20T20:46:18;10.90;99.90
47114;DHT22;32867;51.556;6.832;2023-03-20T20:51:20;11.00;99.90
47114;DHT22;32867;51.556;6.832;2023-03-20T20:56:21;11.00;99.90
47114;DHT22;32867;51.556;6.832;2023-03-20T21:01:22;10.90;99.90
47114;DHT22;32867;51.556;6.832;2023-03-20T21:06:23;11.00;99.90
47114;DHT22;32867;51.556;6.832;2023-03-20T21:11:23;11.00;99.90
47114;DHT22;32867;51.556;6.832;2023-03-20T21:16:24;11.10;99.90
47114;DHT22;32867;51.556;6.832;2023-03-20T21:21:25;11.10;99.90
47114;DHT22;32867;51.556;6.832;2023-03-20T21:26:26;11.10;99.90
47114;DHT22;32867;51.556;6.832;2023-03-20T21:31:27;11.20;99.90
47114;DHT22;32867;51.556;6.832;2023-03-20T21:36:28;11.20;99.90
47114;DHT22;32867;51.556;6.832;2023-03-20T21:41:29;11.20;99.90
47114;DHT22;32867;51.556;6.832;2023-03-20T21:46:30;11.30;99.90
47114;DHT22;32867;51.556;6.832;2023-03-20T21:51:30;11.20;99.90
47114;DHT22;32867;51.556;6.832;2023-03-20T21:56:31;11.10;99.90
47114;DHT22;32867;51.556;6.832;2023-03-20T22:01:32;11.10;99.90
47114;DHT22;32867;51.556;6.832;2023-03-20T22:06:33;11.20;99.90
47114;DHT22;32867;51.556;6.832;2023-03-20T22:11:35;11.20;99.90
47114;DHT22;32867;51.556;6.832;2023-03-20T22:16:36;11.20;99.90
47114;DHT22;32867;51.556;6.832;2023-03-20T22:21:36;11.30;99.90
47114;DHT22;32867;51.556;6.832;2023-03-20T22:26:39;11.30;99.90
47114;DHT22;32867;51.556;6.832;2023-03-20T22:31:39;11.30;99.90
47114;DHT22;32867;51.556;6.832;2023-03-20T22:36:43;11.40;99.90
47114;DHT22;32867;51.556;6.832;2023-03-20T22:41:44;11.40;99.90
47114;DHT22;32867;51.556;6.832;2023-03-20T22:46:45;11.40;99.90
47114;DHT22;32867;51.556;6.832;2023-03-20T22:51:45;11.40;99.90
47114;DHT22;32867;51.556;6.832;2023-03-20T22:56:46;11.50;99.90
47114;DHT22;32867;51.556;6.832;2023-03-20T23:01:47;11.50;99.90
47114;DHT22;32867;51.556;6.832;2023-03-20T23:06:47;11.40;99.90
47114;DHT22;32867;51.556;6.832;2023-03-20T23:11:48;11.40;99.90
47114;DHT22;32867;51.556;6.832;2023-03-20T23:16:49;11.40;99.90
47114;DHT22;32867;51.556;6.832;2023-03-20T23:21:50;11.50;99.90
47114;DHT22;32867;51.556;6.832;2023-03-20T23:26:50;11.40;99.90
47114;DHT22;32867;51.556;6.832;2023-03-20T23:31:53;11.30;99.90
47114;DHT22;32867;51.556;6.832;2023-03-20T23:36:53;11.20;99.90
47114;DHT22;32867;51.556;6.832;2023-03-20T23:41:54;11.20;99.90
47114;DHT22;32867;51.556;6.832;2023-03-20T23:46:55;11.30;99.90
47114;DHT22;32867;51.556;6.832;2023-03-20T23:51:56;11.40;99.90
47114;DHT22;32867;51.556;6.832;2023-03-20T23:56:57;11.50;99.90
